createdAt,value
2023-06-09T00:02:20.501Z,97407.47
2023-06-09T00:04:47.154Z,97398.88
2023-06-09T00:07:17.223Z,97405.38
2023-06-09T00:09:47.675Z,97397.09
2023-06-09T00:12:15.174Z,97393.97
2023-06-09T00:14:42.814Z,97400.13
2023-06-09T00:17:09.656Z,97399.22
2023-06-09T00:19:37.081Z,97399.13
2023-06-09T00:22:04.549Z,97391.22
2023-06-09T00:24:32.219Z,97400.13
2023-06-09T00:26:58.791Z,97398.09
2023-06-09T00:29:25.748Z,97398.88
2023-06-09T00:31:52.432Z,97387.19
2023-06-09T00:34:19.109Z,97386.31
2023-06-09T00:36:45.708Z,97382.69
2023-06-09T00:39:12.268Z,97382.97
2023-06-09T00:41:39.218Z,97377.78
2023-06-09T00:44:06.127Z,97386.31
2023-06-09T00:46:33.590Z,97388.16
2023-06-09T00:49:00.141Z,97390.00
2023-06-09T00:51:26.806Z,97390.59
2023-06-09T00:53:53.366Z,97386.06
2023-06-09T00:56:20.910Z,97395.66
2023-06-09T00:58:47.452Z,97381.03
2023-06-09T01:01:14.463Z,97381.22
2023-06-09T01:03:41.212Z,97388.50
2023-06-09T01:06:28.034Z,97388.63
2023-06-09T01:09:01.160Z,97393.66
2023-06-09T01:11:34.599Z,97394.78
2023-06-09T01:14:07.013Z,97390.47
2023-06-09T01:16:40.306Z,97394.78
2023-06-09T01:19:09.764Z,97388.09
2023-06-09T01:21:42.211Z,97390.38
2023-06-09T01:24:16.398Z,97385.72
2023-06-09T01:26:43.468Z,97387.66
2023-06-09T01:29:10.081Z,97390.38
2023-06-09T01:31:36.762Z,97393.44
2023-06-09T01:34:03.616Z,97387.56
2023-06-09T01:36:30.148Z,97394.81
2023-06-09T01:38:57.441Z,97394.81
2023-06-09T01:41:24.833Z,97394.81
2023-06-09T01:43:51.634Z,97393.59
2023-06-09T01:46:18.215Z,97389.63
2023-06-09T01:49:00.049Z,97395.75
2023-06-09T01:51:56.140Z,97382.84
2023-06-09T01:54:31.506Z,97378.09
2023-06-09T01:56:59.267Z,97379.69
2023-06-09T01:59:30.287Z,97380.47
2023-06-09T02:01:57.380Z,97386.69
2023-06-09T02:04:24.472Z,97383.09
2023-06-09T02:06:50.999Z,97376.44
2023-06-09T02:09:17.800Z,97375.63
2023-06-09T02:11:50.164Z,97380.69
2023-06-09T02:14:16.822Z,97381.88
2023-06-09T02:16:43.450Z,97384.47
2023-06-09T02:19:09.969Z,97385.50
2023-06-09T02:21:36.668Z,97390.38
2023-06-09T02:24:03.229Z,97391.50
2023-06-09T02:26:29.755Z,97379.72
2023-06-09T02:28:56.492Z,97380.75
2023-06-09T02:31:23.156Z,97377.13
2023-06-09T02:33:49.679Z,97376.56
2023-06-09T02:36:17.506Z,97374.56
2023-06-09T02:38:46.226Z,97374.09
2023-06-09T02:41:12.734Z,97373.66
2023-06-09T02:43:39.166Z,97373.53
2023-06-09T02:46:05.854Z,97374.78
2023-06-09T02:48:32.397Z,97370.47
2023-06-09T02:50:58.941Z,97371.59
2023-06-09T02:53:25.661Z,97378.84
2023-06-09T02:55:52.334Z,97374.13
2023-06-09T02:58:25.770Z,97374.00
2023-06-09T03:00:53.570Z,97375.59
2023-06-09T03:03:20.860Z,97372.09
2023-06-09T03:05:48.972Z,97376.72
2023-06-09T03:08:16.153Z,97374.00
2023-06-09T03:10:43.809Z,97374.47
2023-06-09T03:13:13.159Z,97373.22
2023-06-09T03:15:45.264Z,97376.28
2023-06-09T03:18:13.014Z,97377.28
2023-06-09T03:20:39.856Z,97376.03
2023-06-09T03:23:09.970Z,97375.25
2023-06-09T03:25:38.379Z,97383.06
2023-06-09T03:28:05.088Z,97380.69
2023-06-09T03:30:34.804Z,97391.56
2023-06-09T03:33:02.162Z,97392.59
2023-06-09T03:35:28.796Z,97390.44
2023-06-09T03:37:55.696Z,97387.94
2023-06-09T03:40:22.530Z,97390.09
2023-06-09T03:42:49.150Z,97400.06
2023-06-09T03:45:15.998Z,97396.75
2023-06-09T03:47:42.671Z,97386.09
2023-06-09T03:50:10.071Z,97392.69
2023-06-09T03:52:40.858Z,97392.69
2023-06-09T03:55:08.456Z,97397.44
2023-06-09T03:57:36.606Z,97397.09
2023-06-09T04:00:04.812Z,97396.09
2023-06-09T04:02:32.103Z,97396.22
2023-06-09T04:04:58.782Z,97394.03
2023-06-09T04:07:25.975Z,97391.44
2023-06-09T04:09:52.762Z,97395.41
2023-06-09T04:12:19.346Z,97397.13
2023-06-09T04:14:46.972Z,97393.72
2023-06-09T04:17:13.772Z,97396.53
2023-06-09T04:19:40.774Z,97392.00
2023-06-09T04:22:08.505Z,97393.72
2023-06-09T04:24:35.633Z,97394.72
2023-06-09T04:27:04.246Z,97389.84
2023-06-09T04:29:34.113Z,97389.97
2023-06-09T04:32:01.340Z,97396.38
2023-06-09T04:34:30.260Z,97392.66
2023-06-09T04:36:57.290Z,97394.00
2023-06-09T04:39:29.627Z,97394.69
2023-06-09T04:41:56.863Z,97402.63
2023-06-09T04:44:25.659Z,97395.81
2023-06-09T04:46:55.346Z,97398.28
2023-06-09T04:49:24.811Z,97387.59
2023-06-09T04:51:52.184Z,97395.94
2023-06-09T04:54:29.610Z,97398.09
2023-06-09T04:56:59.401Z,97391.97
2023-06-09T04:59:26.160Z,97399.88
2023-06-09T05:01:54.054Z,97403.81
2023-06-09T05:04:20.969Z,97410.63
2023-06-09T05:06:47.906Z,97411.16
2023-06-09T05:09:14.846Z,97408.16
2023-06-09T05:11:42.152Z,97416.78
2023-06-09T05:14:09.121Z,97414.97
2023-06-09T05:16:36.345Z,97415.50
2023-06-09T05:19:05.683Z,97411.72
2023-06-09T05:21:32.316Z,97411.50
2023-06-09T05:23:59.154Z,97413.28
2023-06-09T05:26:26.785Z,97418.47
2023-06-09T05:28:53.908Z,97416.09
2023-06-09T05:31:20.544Z,97422.25
2023-06-09T05:33:47.741Z,97420.66
2023-06-09T05:36:14.393Z,97417.25
2023-06-09T05:38:46.918Z,97417.66
2023-06-09T05:41:15.811Z,97411.53
2023-06-09T05:43:42.488Z,97418.66
2023-06-09T05:46:08.989Z,97360.69
2023-06-09T05:48:35.538Z,97425.16
2023-06-09T05:51:01.996Z,97425.34
2023-06-09T05:53:28.732Z,97435.72
2023-06-09T05:55:55.442Z,97429.75
2023-06-09T05:58:21.950Z,97427.63
2023-06-09T06:00:48.581Z,97420.41
2023-06-09T06:03:15.456Z,97421.34
2023-06-09T06:05:42.119Z,97421.66
2023-06-09T06:08:08.640Z,97423.28
2023-06-09T06:10:35.207Z,97421.53
2023-06-09T06:13:03.125Z,97419.03
2023-06-09T06:15:29.632Z,97412.28
2023-06-09T06:17:56.229Z,97417.28
2023-06-09T06:20:22.813Z,97420.22
2023-06-09T06:22:49.957Z,97421.41
2023-06-09T06:25:16.475Z,97417.44
2023-06-09T06:27:46.105Z,97422.06
2023-06-09T06:30:14.011Z,97421.53
2023-06-09T06:32:48.669Z,97422.50
2023-06-09T06:35:21.805Z,97421.59
2023-06-09T06:37:48.361Z,97421.09
2023-06-09T06:40:15.071Z,97424.78
2023-06-09T06:42:41.547Z,97423.41
2023-06-09T06:45:15.159Z,97417.72
2023-06-09T06:47:42.752Z,97417.47
2023-06-09T06:50:09.968Z,97421.06
2023-06-09T06:52:36.975Z,97424.66
2023-06-09T06:55:03.568Z,97415.06
2023-06-09T06:57:30.069Z,97415.16
2023-06-09T07:00:00.086Z,97416.06
2023-06-09T07:02:30.476Z,97424.00
2023-06-09T07:04:57.949Z,97430.09
2023-06-09T07:07:27.247Z,97434.09
2023-06-09T07:09:54.173Z,97429.44
2023-06-09T07:12:20.821Z,97437.78
2023-06-09T07:14:47.402Z,97434.28
2023-06-09T07:17:14.047Z,97432.13
2023-06-09T07:19:40.763Z,97435.34
2023-06-09T07:22:07.351Z,97442.44
2023-06-09T07:24:34.029Z,97439.44
2023-06-09T07:27:00.507Z,97447.38
2023-06-09T07:29:27.067Z,97439.63
2023-06-09T07:31:53.733Z,97443.53
2023-06-09T07:34:20.304Z,97440.47
2023-06-09T07:36:51.234Z,97431.97
2023-06-09T07:39:18.284Z,97433.63
2023-06-09T07:41:44.812Z,97430.94
2023-06-09T07:44:11.252Z,97427.88
2023-06-09T07:46:37.789Z,97433.00
2023-06-09T07:49:04.596Z,97431.09
2023-06-09T07:51:31.716Z,97437.03
2023-06-09T07:53:58.245Z,97430.41
2023-06-09T07:56:24.738Z,97419.13
2023-06-09T07:58:51.646Z,97423.13
2023-06-09T08:01:18.202Z,97420.06
2023-06-09T08:03:44.890Z,97419.31
2023-06-09T08:06:11.413Z,97426.47
2023-06-09T08:08:38.509Z,97417.84
2023-06-09T08:11:05.054Z,97411.94
2023-06-09T08:13:31.739Z,97418.63
2023-06-09T08:15:58.536Z,97415.47
2023-06-09T08:18:25.140Z,97421.03
2023-06-09T08:20:52.542Z,97414.31
2023-06-09T08:23:21.843Z,97411.16
2023-06-09T08:25:48.882Z,97407.56
2023-06-09T08:28:15.663Z,97408.38
2023-06-09T08:30:42.156Z,97409.94
2023-06-09T08:33:09.177Z,97403.63
2023-06-09T08:35:35.765Z,97399.66
2023-06-09T08:38:02.450Z,97401.22
2023-06-09T08:40:28.938Z,97398.84
2023-06-09T08:42:56.685Z,97396.81
2023-06-09T08:45:23.846Z,97392.78
2023-06-09T08:47:51.139Z,97388.38
2023-06-09T08:50:19.534Z,97389.06
2023-06-09T08:52:46.057Z,97380.69
2023-06-09T08:55:13.535Z,97375.09
2023-06-09T08:57:42.413Z,97380.16
2023-06-09T09:00:11.114Z,97387.97
2023-06-09T09:02:37.824Z,97376.84
2023-06-09T09:05:04.501Z,97376.16
2023-06-09T09:07:31.286Z,97380.44
2023-06-09T09:09:59.795Z,97383.16
2023-06-09T09:12:26.383Z,97388.53
2023-06-09T09:14:52.845Z,97385.25
2023-06-09T09:17:19.450Z,97381.53
2023-06-09T09:19:46.980Z,97385.78
2023-06-09T09:22:13.811Z,97389.63
2023-06-09T09:24:46.844Z,97385.19
2023-06-09T09:27:17.863Z,97387.06
2023-06-09T09:29:45.100Z,97384.00
2023-06-09T09:32:11.588Z,97384.69
2023-06-09T09:34:41.012Z,97379.06
2023-06-09T09:37:11.173Z,97382.22
2023-06-09T09:39:47.657Z,97379.16
2023-06-09T09:42:14.165Z,97366.78
2023-06-09T09:44:43.588Z,97359.72
2023-06-09T09:47:11.435Z,97363.44
2023-06-09T09:49:37.961Z,97353.66
2023-06-09T09:52:06.628Z,97352.06
2023-06-09T09:54:33.102Z,97348.34
2023-06-09T09:56:59.896Z,97349.06
2023-06-09T09:59:27.063Z,97351.38
2023-06-09T10:01:54.858Z,97350.19
2023-06-09T10:04:25.158Z,97345.69
2023-06-09T10:06:57.724Z,97351.38
2023-06-09T10:09:24.587Z,97349.31
2023-06-09T10:11:52.765Z,97348.41
2023-06-09T10:14:19.681Z,97340.44
2023-06-09T10:16:46.383Z,97339.84
2023-06-09T10:19:13.016Z,97345.38
2023-06-09T10:21:40.515Z,97344.06
2023-06-09T10:24:08.103Z,97339.78
2023-06-09T10:26:35.448Z,97345.69
2023-06-09T10:29:02.076Z,97338.53
2023-06-09T10:31:30.729Z,97342.03
2023-06-09T10:33:57.276Z,97333.00
2023-06-09T10:36:23.959Z,97336.00
2023-06-09T10:38:54.734Z,97342.13
2023-06-09T10:41:32.778Z,97349.25
2023-06-09T10:44:19.187Z,97342.50
2023-06-09T10:46:47.034Z,97330.38
2023-06-09T10:49:42.127Z,97335.50
2023-06-09T10:52:10.009Z,97335.72
2023-06-09T10:54:36.959Z,97336.75
2023-06-09T10:57:08.242Z,97332.84
2023-06-09T10:59:37.813Z,97319.81
2023-06-09T11:02:07.366Z,97322.59
2023-06-09T11:04:46.439Z,97318.25
2023-06-09T11:07:16.318Z,97319.88
2023-06-09T11:09:52.193Z,97331.53
2023-06-09T11:12:28.297Z,97323.91
2023-06-09T11:15:01.276Z,97314.81
2023-06-09T11:17:35.112Z,97317.91
2023-06-09T11:20:11.272Z,97311.53
2023-06-09T11:22:55.537Z,97312.13
2023-06-09T11:25:23.424Z,97236.13
2023-06-09T11:27:56.158Z,97312.16
2023-06-09T11:30:23.253Z,97319.09
2023-06-09T11:32:53.493Z,97299.53
2023-06-09T11:35:32.276Z,97298.91
2023-06-09T11:37:58.933Z,97305.59
2023-06-09T11:40:26.008Z,97312.72
2023-06-09T11:42:52.550Z,97307.66
2023-06-09T11:45:19.157Z,97301.09
2023-06-09T11:47:46.440Z,97298.44
2023-06-09T11:50:13.912Z,97305.25
2023-06-09T11:52:41.579Z,97296.91
2023-06-09T11:55:08.879Z,97292.94
2023-06-09T11:57:35.829Z,97285.66
2023-06-09T12:00:15.712Z,97287.31
2023-06-09T12:02:42.871Z,97287.56
2023-06-09T12:05:10.227Z,97289.56
2023-06-09T12:07:37.061Z,97287.25
2023-06-09T12:10:04.644Z,97277.63
2023-06-09T12:12:31.312Z,97276.16
2023-06-09T12:14:57.836Z,97282.22
2023-06-09T12:17:24.556Z,97281.19
2023-06-09T12:19:52.505Z,97289.09
2023-06-09T12:22:19.173Z,97283.69
2023-06-09T12:24:45.847Z,97271.19
2023-06-09T12:27:12.967Z,97272.13
2023-06-09T12:29:40.159Z,97274.16
2023-06-09T12:32:07.493Z,97270.16
2023-06-09T12:34:34.072Z,97278.00
2023-06-09T12:37:00.563Z,97268.44
2023-06-09T12:39:31.329Z,97269.72
2023-06-09T12:41:57.998Z,97264.28
2023-06-09T12:44:27.530Z,97259.84
2023-06-09T12:46:57.201Z,97264.19
2023-06-09T12:49:33.288Z,97264.25
2023-06-09T12:52:00.366Z,97267.69
2023-06-09T12:54:28.028Z,97261.00
2023-06-09T12:56:55.380Z,97259.38
2023-06-09T12:59:21.918Z,97254.88
2023-06-09T13:01:48.889Z,97251.88
2023-06-09T13:04:16.868Z,97249.09
2023-06-09T13:06:43.916Z,97238.56
2023-06-09T13:09:10.488Z,97251.25
2023-06-09T13:11:37.083Z,97259.56
2023-06-09T13:14:03.709Z,97253.91
2023-06-09T13:16:30.841Z,97251.94
2023-06-09T13:18:57.328Z,97245.25
2023-06-09T13:21:34.802Z,97242.78
2023-06-09T13:24:09.448Z,97240.22
2023-06-09T13:26:36.144Z,97249.56
2023-06-09T13:29:02.677Z,97242.06
2023-06-09T13:31:29.187Z,97237.94
2023-06-09T13:33:55.702Z,97242.25
2023-06-09T13:36:22.245Z,97241.09
2023-06-09T13:38:48.779Z,97238.31
2023-06-09T13:41:16.213Z,97242.00
2023-06-09T13:43:42.914Z,97228.28
2023-06-09T13:46:09.442Z,97234.88
2023-06-09T13:48:36.336Z,97225.09
2023-06-09T13:51:03.226Z,97238.41
2023-06-09T13:53:29.830Z,97242.72
2023-06-09T13:55:56.460Z,97236.00
2023-06-09T13:58:23.260Z,97231.31
2023-06-09T14:00:49.908Z,97234.84
2023-06-09T14:03:16.803Z,97229.28
2023-06-09T14:05:44.364Z,97227.53
2023-06-09T14:08:11.133Z,97209.75
2023-06-09T14:10:37.619Z,97212.03
2023-06-09T14:13:04.536Z,97219.28
2023-06-09T14:15:31.238Z,97219.97
2023-06-09T14:17:58.364Z,97219.19
2023-06-09T14:20:27.299Z,97219.13
2023-06-09T14:22:53.932Z,97211.47
2023-06-09T14:25:22.673Z,97206.38
2023-06-09T14:27:50.363Z,97204.31
2023-06-09T14:30:19.158Z,97204.50
2023-06-09T14:32:48.412Z,97200.13
2023-06-09T14:35:23.431Z,97199.00
2023-06-09T14:37:54.104Z,97198.31
2023-06-09T14:40:21.312Z,97197.56
2023-06-09T14:42:50.151Z,97186.44
2023-06-09T14:45:21.611Z,97187.06
2023-06-09T14:47:49.708Z,97188.44
2023-06-09T14:50:23.354Z,97127.72
2023-06-09T14:52:53.035Z,97187.31
2023-06-09T14:55:24.068Z,97184.50
2023-06-09T14:57:51.450Z,97186.50
2023-06-09T15:00:19.001Z,97185.38
2023-06-09T15:02:45.596Z,97185.63
2023-06-09T15:05:12.257Z,97183.53
2023-06-09T15:07:38.939Z,97186.75
2023-06-09T15:10:06.012Z,97181.28
2023-06-09T15:12:32.860Z,97174.88
2023-06-09T15:15:01.531Z,97179.91
2023-06-09T15:17:28.197Z,97172.72
2023-06-09T15:19:54.694Z,97182.03
2023-06-09T15:24:47.991Z,97172.25
2023-06-09T15:27:14.558Z,97178.41
2023-06-09T15:29:41.131Z,97166.75
2023-06-09T15:32:07.853Z,97167.09
2023-06-09T15:34:34.362Z,97165.69
2023-06-09T15:37:00.878Z,97165.34
2023-06-09T15:39:27.637Z,97160.38
2023-06-09T15:41:54.119Z,97164.63
2023-06-09T15:44:20.812Z,97152.41
2023-06-09T15:46:47.439Z,97164.38
2023-06-09T15:49:14.018Z,97158.78
2023-06-09T15:51:40.504Z,97165.19
2023-06-09T15:54:07.206Z,97158.31
2023-06-09T15:56:33.969Z,97163.50
2023-06-09T15:59:00.434Z,97157.47
2023-06-09T16:01:27.496Z,97158.25
2023-06-09T16:03:54.190Z,97159.81
2023-06-09T16:06:21.316Z,97146.09
2023-06-09T16:08:47.908Z,97158.03
2023-06-09T16:11:14.414Z,97160.03
2023-06-09T16:13:41.815Z,97149.88
2023-06-09T16:16:08.486Z,97153.13
2023-06-09T16:18:35.086Z,97143.63
2023-06-09T16:21:01.614Z,97142.03
2023-06-09T16:23:28.115Z,97148.72
2023-06-09T16:25:54.656Z,97142.81
2023-06-09T16:28:21.224Z,97152.44
2023-06-09T16:30:47.833Z,97149.69
2023-06-09T16:33:14.496Z,97148.91
2023-06-09T16:35:41.100Z,97092.56
2023-06-09T16:38:07.750Z,97147.59
2023-06-09T16:40:34.358Z,97152.28
2023-06-09T16:43:00.860Z,97159.44
2023-06-09T16:45:27.774Z,97159.56
2023-06-09T16:47:54.383Z,97157.00
2023-06-09T16:50:20.961Z,97158.28
2023-06-09T16:52:47.409Z,97165.91
2023-06-09T16:55:13.937Z,97165.19
2023-06-09T16:57:40.480Z,97169.16
2023-06-09T17:00:07.499Z,97153.06
2023-06-09T17:02:34.277Z,97158.59
2023-06-09T17:05:00.876Z,97161.38
2023-06-09T17:07:32.347Z,97163.41
2023-06-09T17:09:58.963Z,97159.56
2023-06-09T17:12:25.798Z,97161.19
2023-06-09T17:14:52.348Z,97158.09
2023-06-09T17:17:18.825Z,97167.59
2023-06-09T17:19:46.423Z,97167.69
2023-06-09T17:22:13.110Z,97159.94
2023-06-09T17:24:39.576Z,97161.19
2023-06-09T17:27:07.075Z,97174.22
2023-06-09T17:29:33.629Z,97166.34
2023-06-09T17:32:00.211Z,97167.53
2023-06-09T17:34:26.794Z,97172.28
2023-06-09T17:36:53.274Z,97164.00
2023-06-09T17:39:19.855Z,97167.66
2023-06-09T17:41:46.380Z,97168.16
2023-06-09T17:44:12.973Z,97164.22
2023-06-09T17:46:39.584Z,97170.97
2023-06-09T17:49:06.064Z,97174.59
2023-06-09T17:51:33.522Z,97180.91
2023-06-09T17:54:00.416Z,97187.22
2023-06-09T17:56:27.698Z,97193.53
2023-06-09T17:58:54.168Z,97187.34
2023-06-09T18:01:20.962Z,97197.34
2023-06-09T18:03:47.693Z,97196.28
2023-06-09T18:06:14.253Z,97198.06
2023-06-09T18:08:40.746Z,97200.84
2023-06-09T18:11:07.336Z,97203.69
2023-06-09T18:13:33.882Z,97210.06
2023-06-09T18:16:00.494Z,97214.50
2023-06-09T18:18:27.059Z,97210.59
2023-06-09T18:20:53.619Z,97210.28
2023-06-09T18:23:20.268Z,97214.28
2023-06-09T18:25:47.543Z,97217.50
2023-06-09T18:28:14.288Z,97218.69
2023-06-09T18:30:40.770Z,97218.38
2023-06-09T18:33:07.359Z,97217.63
2023-06-09T18:35:33.994Z,97225.53
2023-06-09T18:38:00.515Z,97226.34
2023-06-09T18:40:27.003Z,97224.09
2023-06-09T18:42:53.584Z,97226.50
2023-06-09T18:45:20.449Z,97228.50
2023-06-09T18:47:47.327Z,97234.84
2023-06-09T18:50:13.950Z,97237.59
2023-06-09T18:52:40.536Z,97233.69
2023-06-09T18:55:07.604Z,97240.03
2023-06-09T18:57:38.045Z,97241.63
2023-06-09T19:00:10.178Z,97234.16
2023-06-09T19:02:36.834Z,97244.41
2023-06-09T19:05:04.066Z,97246.38
2023-06-09T19:07:30.597Z,97238.53
2023-06-09T19:09:57.129Z,97241.34
2023-06-09T19:12:23.857Z,97238.97
2023-06-09T19:14:51.050Z,97240.94
2023-06-09T19:17:17.734Z,97252.78
2023-06-09T19:19:44.432Z,97244.94
2023-06-09T19:22:10.938Z,97245.81
2023-06-09T19:24:37.649Z,97242.31
2023-06-09T19:27:04.211Z,97246.69
2023-06-09T19:29:31.022Z,97245.91
2023-06-09T19:31:57.503Z,97255.00
2023-06-09T19:34:24.033Z,97258.16
2023-06-09T19:36:51.226Z,97258.56
2023-06-09T19:39:17.861Z,97267.63
2023-06-09T19:41:44.627Z,97275.97
2023-06-09T19:44:11.318Z,97273.63
2023-06-09T19:46:38.024Z,97284.28
2023-06-09T19:49:06.430Z,97283.16
2023-06-09T19:51:33.011Z,97283.13
2023-06-09T19:54:00.311Z,97287.88
2023-06-09T19:56:26.851Z,97296.19
2023-06-09T19:58:53.318Z,97295.41
2023-06-09T20:01:19.986Z,97299.75
2023-06-09T20:03:46.584Z,97303.34
2023-06-09T20:06:13.203Z,97303.75
2023-06-09T20:08:39.711Z,97304.94
2023-06-09T20:11:06.159Z,97299.84
2023-06-09T20:13:32.680Z,97310.47
2023-06-09T20:16:00.247Z,97302.63
2023-06-09T20:18:26.880Z,97308.91
2023-06-09T20:20:53.628Z,97308.94
2023-06-09T20:23:24.649Z,97308.13
2023-06-09T20:25:51.395Z,97312.47
2023-06-09T20:28:17.901Z,97313.63
2023-06-09T20:30:44.407Z,97315.25
2023-06-09T20:33:11.041Z,97317.22
2023-06-09T20:35:37.599Z,97312.50
2023-06-09T20:38:04.171Z,97317.19
2023-06-09T20:40:31.107Z,97323.91
2023-06-09T20:42:57.701Z,97323.13
2023-06-09T20:45:25.015Z,97325.06
2023-06-09T20:47:52.294Z,97323.50
2023-06-09T20:50:19.143Z,97325.47
2023-06-09T20:52:47.806Z,97326.25
2023-06-09T20:55:15.127Z,97329.78
2023-06-09T20:57:41.750Z,97328.19
2023-06-09T21:00:08.676Z,97329.34
2023-06-09T21:02:36.546Z,97329.75
2023-06-09T21:05:04.409Z,97328.94
2023-06-09T21:07:31.451Z,97331.31
2023-06-09T21:09:58.093Z,97330.50
2023-06-09T21:12:25.159Z,97336.75
2023-06-09T21:14:51.728Z,97337.13
2023-06-09T21:17:18.238Z,97330.84
2023-06-09T21:19:44.909Z,97334.34
2023-06-09T21:22:11.567Z,97338.22
2023-06-09T21:24:38.060Z,97333.06
2023-06-09T21:27:04.881Z,97334.25
2023-06-09T21:29:31.393Z,97332.66
2023-06-09T21:31:57.963Z,97329.50
2023-06-09T21:34:24.508Z,97330.28
2023-06-09T21:36:51.143Z,97337.34
2023-06-09T21:39:17.758Z,97342.00
2023-06-09T21:41:44.266Z,97339.28
2023-06-09T21:44:10.809Z,97349.06
2023-06-09T21:46:37.336Z,97348.66
2023-06-09T21:49:03.866Z,97352.16
2023-06-09T21:51:30.619Z,97353.31
2023-06-09T21:53:57.142Z,97354.47
2023-06-09T21:56:23.721Z,97357.19
2023-06-09T21:58:50.296Z,97359.94
2023-06-09T22:01:16.929Z,97357.16
2023-06-09T22:03:43.447Z,97348.13
2023-06-09T22:06:11.314Z,97361.84
2023-06-09T22:08:39.354Z,97355.16
2023-06-09T22:11:06.082Z,97352.00
2023-06-09T22:13:33.570Z,97347.25
2023-06-09T22:16:00.155Z,97342.47
2023-06-09T22:18:26.643Z,97351.88
2023-06-09T22:21:07.378Z,97356.53
2023-06-09T22:23:33.929Z,97349.41
2023-06-09T22:26:00.425Z,97353.69
2023-06-09T22:28:26.993Z,97355.22
2023-06-09T22:30:53.527Z,97366.09
2023-06-09T22:33:19.996Z,97362.94
2023-06-09T22:35:46.542Z,97358.13
2023-06-09T22:38:13.191Z,97355.72
2023-06-09T22:40:39.697Z,97360.78
2023-06-09T22:43:06.453Z,97357.25
2023-06-09T22:45:32.948Z,97355.31
2023-06-09T22:47:59.559Z,97358.47
2023-06-09T22:50:26.254Z,97357.66
2023-06-09T22:52:52.807Z,97354.44
2023-06-09T22:55:19.649Z,97363.41
2023-06-09T22:57:48.243Z,97361.03
2023-06-09T23:00:15.934Z,97352.72
2023-06-09T23:02:42.984Z,97352.31
2023-06-09T23:05:11.740Z,97353.41
2023-06-09T23:07:38.631Z,97347.09
2023-06-09T23:10:06.176Z,97348.59
2023-06-09T23:12:32.792Z,97343.38
2023-06-09T23:15:06.166Z,97344.13
2023-06-09T23:17:34.200Z,97342.22
2023-06-09T23:20:01.610Z,97342.25
2023-06-09T23:22:30.853Z,97341.09
2023-06-09T23:24:57.424Z,97345.38
2023-06-09T23:27:24.009Z,97336.75
2023-06-09T23:29:50.541Z,97332.00
2023-06-09T23:32:17.092Z,97331.97
2023-06-09T23:34:43.790Z,97325.63
2023-06-09T23:37:11.092Z,97333.44
2023-06-09T23:39:37.662Z,97340.06
2023-06-09T23:42:04.297Z,97333.81
2023-06-09T23:44:30.903Z,97332.94
2023-06-09T23:46:57.429Z,97334.03
2023-06-09T23:49:24.012Z,97333.97
2023-06-09T23:51:50.607Z,97332.38
2023-06-09T23:54:17.104Z,97331.56
2023-06-09T23:56:45.662Z,97335.44
2023-06-09T23:59:12.664Z,97337.38
